createdAt,value
2022-09-14T00:00:34.173Z,31.27
2022-09-14T00:03:04.213Z,30.38
2022-09-14T00:05:37.507Z,31.05
2022-09-14T00:08:07.573Z,30.05
2022-09-14T00:10:42.388Z,30.05
2022-09-14T00:13:13.389Z,31.73
2022-09-14T00:15:47.904Z,31.55
2022-09-14T00:18:17.826Z,31.05
2022-09-14T00:20:48.105Z,31.05
2022-09-14T00:23:18.042Z,31.05
2022-09-14T00:25:48.189Z,32.25
2022-09-14T00:28:18.176Z,33.03
2022-09-14T00:30:49.156Z,31.73
2022-09-14T00:33:19.201Z,31.77
2022-09-14T00:35:49.511Z,32.70
2022-09-14T00:38:19.635Z,35.53
2022-09-14T00:41:02.447Z,32.28
2022-09-14T00:43:32.718Z,35.25
2022-09-14T00:46:04.296Z,33.08
2022-09-14T00:48:34.670Z,36.63
2022-09-14T00:51:04.906Z,36.53
2022-09-14T00:53:35.029Z,34.08
2022-09-14T00:56:05.193Z,36.30
2022-09-14T00:58:35.601Z,39.13
2022-09-14T01:01:05.709Z,35.00
2022-09-14T01:03:36.113Z,33.42
2022-09-14T01:06:18.446Z,34.30
2022-09-14T01:09:03.636Z,36.40
2022-09-14T01:11:51.630Z,33.78
2022-09-14T01:14:48.689Z,34.92
2022-09-14T01:17:37.837Z,34.10
2022-09-14T01:20:28.541Z,33.95
2022-09-14T01:23:15.814Z,35.38
2022-09-14T01:26:20.183Z,35.15
2022-09-14T01:29:04.844Z,34.83
2022-09-14T01:31:48.672Z,35.10
2022-09-14T01:34:38.942Z,36.95
2022-09-14T01:37:36.002Z,32.80
2022-09-14T01:40:36.580Z,34.83
2022-09-14T01:43:29.665Z,34.70
2022-09-14T01:46:10.923Z,36.95
2022-09-14T01:48:58.569Z,35.15
2022-09-14T01:51:37.769Z,38.55
2022-09-14T01:54:27.685Z,39.35
2022-09-14T01:57:22.359Z,41.40
2022-09-14T01:59:57.229Z,41.92
2022-09-14T02:02:36.270Z,46.22
2022-09-14T02:05:09.749Z,49.17
2022-09-14T02:07:40.542Z,44.20
2022-09-14T02:10:14.906Z,43.35
2022-09-14T02:12:45.809Z,42.08
2022-09-14T02:15:17.423Z,43.22
2022-09-14T02:17:48.564Z,40.72
2022-09-14T02:20:42.136Z,44.30
2022-09-14T02:23:12.462Z,46.63
2022-09-14T02:25:43.834Z,46.80
2022-09-14T02:28:13.832Z,47.75
2022-09-14T02:31:02.488Z,46.85
2022-09-14T02:33:35.505Z,46.10
2022-09-14T02:36:17.126Z,46.13
2022-09-14T02:39:02.575Z,46.85
2022-09-14T02:42:16.905Z,51.47
2022-09-14T02:44:49.825Z,50.53
2022-09-14T02:47:36.675Z,50.58
2022-09-14T02:50:46.485Z,52.60
2022-09-14T02:53:33.196Z,54.15
2022-09-14T02:56:09.211Z,53.33
2022-09-14T02:58:44.703Z,53.88
2022-09-14T03:01:17.845Z,55.22
2022-09-14T03:03:48.686Z,57.78
2022-09-14T03:06:19.421Z,55.90
2022-09-14T03:08:50.050Z,53.38
2022-09-14T03:11:20.183Z,52.92
2022-09-14T03:13:51.129Z,53.65
2022-09-14T03:16:21.626Z,51.17
2022-09-14T03:18:51.833Z,54.42
2022-09-14T03:21:21.802Z,51.05
2022-09-14T03:23:53.893Z,53.22
2022-09-14T03:26:25.378Z,56.25
2022-09-14T03:29:00.657Z,53.40
2022-09-14T03:31:31.688Z,53.47
2022-09-14T03:34:03.485Z,54.90
2022-09-14T03:36:34.406Z,53.00
2022-09-14T03:39:04.363Z,55.70
2022-09-14T03:41:34.567Z,53.08
2022-09-14T03:44:04.648Z,54.13
2022-09-14T03:46:34.961Z,54.22
2022-09-14T03:49:05.181Z,56.08
2022-09-14T03:51:36.978Z,52.00
2022-09-14T03:54:07.863Z,53.97
2022-09-14T03:56:37.790Z,53.50
2022-09-14T03:59:11.767Z,54.25
2022-09-14T04:01:42.589Z,57.10
2022-09-14T04:04:12.794Z,53.17
2022-09-14T04:06:42.738Z,59.90
2022-09-14T04:09:13.233Z,58.10
2022-09-14T04:11:43.374Z,62.22
2022-09-14T04:14:14.762Z,60.65
2022-09-14T04:16:46.303Z,59.38
2022-09-14T04:19:16.425Z,60.00
2022-09-14T04:21:47.422Z,59.28
2022-09-14T04:24:18.756Z,59.53
2022-09-14T04:26:49.471Z,60.15
2022-09-14T04:29:19.559Z,77.07
2022-09-14T04:31:55.575Z,79.93
2022-09-14T04:34:27.721Z,82.72
2022-09-14T04:36:58.266Z,82.00
2022-09-14T04:39:49.947Z,76.28
2022-09-14T04:42:20.251Z,77.23
2022-09-14T04:44:50.192Z,81.07
2022-09-14T04:47:20.683Z,69.38
2022-09-14T04:49:50.667Z,73.38
2022-09-14T04:52:20.940Z,74.43
2022-09-14T04:54:50.608Z,73.07
2022-09-14T04:57:20.739Z,69.10
2022-09-14T04:59:50.404Z,70.18
2022-09-14T05:02:20.286Z,52.17
2022-09-14T05:04:50.631Z,53.40
2022-09-14T05:07:20.430Z,51.00
2022-09-14T05:09:50.389Z,55.55
2022-09-14T05:12:20.297Z,55.05
2022-09-14T05:14:50.295Z,56.17
2022-09-14T05:17:26.166Z,57.65
2022-09-14T05:19:57.799Z,56.65
2022-09-14T05:22:27.618Z,56.97
2022-09-14T05:24:58.601Z,53.42
2022-09-14T05:27:28.319Z,52.40
2022-09-14T05:29:59.658Z,51.47
2022-09-14T05:32:36.755Z,48.77
2022-09-14T05:35:09.438Z,47.42
2022-09-14T05:37:39.920Z,46.78
2022-09-14T05:40:11.173Z,47.38
2022-09-14T05:42:45.399Z,46.70
2022-09-14T05:45:17.425Z,41.70
2022-09-14T05:47:47.191Z,41.03
2022-09-14T05:50:17.270Z,37.85
2022-09-14T05:52:47.420Z,37.50
2022-09-14T05:55:17.483Z,47.92
2022-09-14T05:57:51.738Z,35.63
2022-09-14T06:00:22.837Z,38.00
2022-09-14T06:02:54.612Z,34.55
2022-09-14T06:05:26.906Z,40.38
2022-09-14T06:08:15.231Z,43.05
2022-09-14T06:10:45.513Z,36.25
2022-09-14T06:13:15.506Z,37.30
2022-09-14T06:15:54.415Z,37.92
2022-09-14T06:18:40.618Z,35.42
2022-09-14T06:21:20.331Z,30.98
2022-09-14T06:23:51.654Z,32.22
2022-09-14T06:26:22.393Z,30.90
2022-09-14T06:28:52.374Z,32.80
2022-09-14T06:31:24.169Z,28.35
2022-09-14T06:33:55.175Z,23.77
2022-09-14T06:36:28.194Z,25.60
2022-09-14T06:39:00.291Z,24.60
2022-09-14T06:44:09.032Z,22.60
2022-09-14T06:46:44.556Z,27.00
2022-09-14T06:49:32.488Z,24.48
2022-09-14T06:52:06.037Z,25.60
2022-09-14T06:54:42.383Z,26.98
2022-09-14T06:57:12.526Z,28.83
2022-09-14T06:59:43.668Z,27.73
2022-09-14T07:02:16.180Z,29.63
2022-09-14T07:04:46.703Z,26.70
2022-09-14T07:07:21.585Z,26.58
2022-09-14T07:09:52.798Z,23.77
2022-09-14T07:12:23.740Z,22.67
2022-09-14T07:14:53.731Z,23.48
2022-09-14T07:17:23.897Z,25.42
2022-09-14T07:19:54.046Z,24.45
2022-09-14T07:22:25.137Z,23.42
2022-09-14T07:24:55.301Z,23.00
2022-09-14T07:27:25.347Z,23.13
2022-09-14T07:29:55.846Z,22.70
2022-09-14T07:32:36.958Z,25.00
2022-09-14T07:35:07.476Z,25.00
2022-09-14T07:37:38.290Z,23.50
2022-09-14T07:40:09.078Z,26.90
2022-09-14T07:42:43.074Z,25.08
2022-09-14T07:45:13.645Z,23.45
2022-09-14T07:47:44.263Z,29.33
2022-09-14T07:50:26.113Z,23.33
2022-09-14T07:52:57.633Z,23.75
2022-09-14T07:55:30.743Z,25.55
2022-09-14T07:58:01.250Z,22.98
2022-09-14T08:00:31.450Z,24.27
2022-09-14T08:03:01.355Z,25.48
2022-09-14T08:05:31.275Z,23.55
2022-09-14T08:08:04.332Z,23.63
2022-09-14T08:10:37.777Z,23.52
2022-09-14T08:13:08.019Z,25.13
2022-09-14T08:15:43.500Z,25.90
2022-09-14T08:18:13.024Z,25.08
2022-09-14T08:20:45.182Z,26.17
2022-09-14T08:23:15.255Z,25.73
2022-09-14T08:25:45.336Z,25.63
2022-09-14T08:28:14.986Z,27.85
2022-09-14T08:30:46.443Z,28.50
2022-09-14T08:33:15.981Z,28.67
2022-09-14T08:35:57.691Z,27.45
2022-09-14T08:38:27.802Z,28.95
2022-09-14T08:40:58.417Z,29.25
2022-09-14T08:43:29.567Z,28.98
2022-09-14T08:46:07.755Z,28.02
2022-09-14T08:48:42.465Z,26.70
2022-09-14T08:51:14.082Z,26.10
2022-09-14T08:53:45.044Z,26.10
2022-09-14T08:56:26.901Z,25.48
2022-09-14T08:59:13.057Z,24.67
2022-09-14T09:02:02.445Z,26.20
2022-09-14T09:04:35.152Z,25.08
2022-09-14T09:07:30.864Z,23.05
2022-09-14T09:10:01.434Z,23.02
2022-09-14T09:12:53.837Z,25.30
2022-09-14T09:15:25.769Z,23.23
2022-09-14T09:18:13.354Z,23.50
2022-09-14T09:20:54.160Z,22.30
2022-09-14T09:23:48.957Z,23.73
2022-09-14T09:26:28.496Z,23.88
2022-09-14T09:29:33.286Z,24.50
2022-09-14T09:33:05.538Z,22.60
2022-09-14T09:35:55.335Z,23.20
2022-09-14T09:38:31.198Z,21.58
2022-09-14T09:41:08.961Z,23.58
2022-09-14T09:44:04.307Z,25.48
2022-09-14T09:46:36.724Z,23.02
2022-09-14T09:49:32.282Z,23.20
2022-09-14T09:52:28.476Z,23.58
2022-09-14T09:54:59.734Z,22.42
2022-09-14T09:57:38.327Z,22.17
2022-09-14T10:00:22.566Z,22.10
2022-09-14T10:02:54.152Z,22.10
2022-09-14T10:05:34.252Z,20.35
2022-09-14T10:08:11.595Z,21.55
2022-09-14T10:10:46.080Z,20.85
2022-09-14T10:13:38.759Z,21.35
2022-09-14T10:16:15.984Z,20.90
2022-09-14T10:18:51.402Z,21.45
2022-09-14T10:21:23.875Z,22.13
2022-09-14T10:24:17.543Z,21.80
2022-09-14T10:26:47.321Z,24.30
2022-09-14T10:29:31.124Z,21.30
2022-09-14T10:32:25.307Z,21.63
2022-09-14T10:34:55.864Z,22.23
2022-09-14T10:37:33.549Z,20.40
2022-09-14T10:40:17.485Z,22.45
2022-09-14T10:43:01.643Z,21.65
2022-09-14T10:45:43.126Z,23.05
2022-09-14T10:48:39.188Z,25.47
2022-09-14T10:51:09.491Z,21.63
2022-09-14T10:54:12.558Z,22.10
2022-09-14T10:57:06.748Z,20.83
2022-09-14T10:59:50.151Z,21.63
2022-09-14T11:02:41.044Z,25.05
2022-09-14T11:05:22.748Z,23.65
2022-09-14T11:08:07.926Z,23.15
2022-09-14T11:10:56.002Z,22.48
2022-09-14T11:13:34.850Z,23.80
2022-09-14T11:16:10.701Z,22.25
2022-09-14T11:19:27.105Z,22.95
2022-09-14T11:22:00.230Z,21.48
2022-09-14T11:24:52.405Z,22.63
2022-09-14T11:27:37.376Z,22.52
2022-09-14T11:30:25.518Z,22.30
2022-09-14T11:33:05.273Z,24.00
2022-09-14T11:35:47.876Z,26.25
2022-09-14T11:38:25.825Z,31.55
2022-09-14T11:41:04.720Z,37.88
2022-09-14T11:44:02.696Z,33.75
2022-09-14T11:46:51.548Z,36.42
2022-09-14T11:49:32.348Z,32.70
2022-09-14T11:52:10.195Z,33.38
2022-09-14T11:54:53.122Z,29.15
2022-09-14T11:57:28.036Z,34.85
2022-09-14T12:00:07.694Z,39.80
2022-09-14T12:02:39.247Z,41.85
2022-09-14T12:05:09.414Z,40.90
2022-09-14T12:07:44.920Z,34.28
2022-09-14T12:10:18.165Z,34.60
2022-09-14T12:12:49.924Z,36.40
2022-09-14T12:15:20.657Z,40.00
2022-09-14T12:17:51.670Z,38.90
2022-09-14T12:20:34.777Z,42.80
2022-09-14T12:23:40.557Z,33.55
2022-09-14T12:26:14.550Z,35.85
2022-09-14T12:28:50.995Z,34.25
2022-09-14T12:31:51.777Z,37.15
2022-09-14T12:34:25.915Z,35.88
2022-09-14T12:36:59.275Z,35.92
2022-09-14T12:39:37.506Z,31.83
2022-09-14T12:42:30.320Z,33.15
2022-09-14T12:45:20.349Z,33.85
2022-09-14T12:47:53.701Z,36.60
2022-09-14T12:50:24.596Z,37.08
2022-09-14T12:53:16.226Z,34.67
2022-09-14T12:56:01.105Z,35.20
2022-09-14T12:59:06.575Z,36.00
2022-09-14T13:02:14.463Z,39.67
2022-09-14T13:04:46.900Z,40.65
2022-09-14T13:07:21.683Z,43.25
2022-09-14T13:09:55.153Z,44.65
2022-09-14T13:12:46.275Z,43.50
2022-09-14T13:15:38.130Z,44.33
2022-09-14T13:18:20.369Z,48.47
2022-09-14T13:20:55.536Z,47.67
2022-09-14T13:23:43.539Z,48.15
2022-09-14T13:26:25.790Z,45.55
2022-09-14T13:28:57.410Z,45.72
2022-09-14T13:31:39.338Z,41.55
2022-09-14T13:34:29.414Z,35.78
2022-09-14T13:37:01.477Z,36.22
2022-09-14T13:39:37.531Z,36.45
2022-09-14T13:42:08.326Z,36.40
2022-09-14T13:44:51.190Z,35.28
2022-09-14T13:47:32.657Z,35.92
2022-09-14T13:50:04.856Z,34.42
2022-09-14T13:53:03.069Z,33.33
2022-09-14T13:55:36.691Z,35.65
2022-09-14T13:58:20.922Z,36.00
2022-09-14T14:00:57.152Z,39.63
2022-09-14T14:03:37.777Z,32.80
2022-09-14T14:06:41.693Z,35.25
2022-09-14T14:09:12.942Z,32.30
2022-09-14T14:11:53.311Z,34.72
2022-09-14T14:14:30.931Z,33.47
2022-09-14T14:17:32.175Z,33.75
2022-09-14T14:20:26.169Z,33.97
2022-09-14T14:23:09.170Z,31.55
2022-09-14T14:25:45.984Z,33.80
2022-09-14T14:28:31.832Z,30.35
2022-09-14T14:31:08.970Z,30.48
2022-09-14T14:33:47.672Z,29.50
2022-09-14T14:36:17.762Z,28.33
2022-09-14T14:38:49.478Z,31.30
2022-09-14T14:41:23.323Z,32.55
2022-09-14T14:47:15.951Z,30.60
2022-09-14T14:50:16.324Z,32.22
2022-09-14T14:53:08.584Z,28.75
2022-09-14T14:56:01.958Z,30.73
2022-09-14T14:58:58.888Z,31.70
2022-09-14T15:01:53.549Z,31.55
2022-09-14T15:04:44.623Z,32.30
2022-09-14T15:07:37.632Z,31.98
2022-09-14T15:10:32.675Z,32.22
2022-09-14T15:13:23.596Z,31.60
2022-09-14T15:16:15.336Z,33.22
2022-09-14T15:19:05.648Z,32.92
2022-09-14T15:22:01.037Z,33.83
2022-09-14T15:24:52.007Z,31.27
2022-09-14T15:27:42.895Z,33.20
2022-09-14T15:30:14.956Z,31.88
2022-09-14T15:33:04.230Z,30.30
2022-09-14T15:35:59.640Z,30.85
2022-09-14T15:38:49.768Z,32.42
2022-09-14T15:41:41.125Z,31.63
2022-09-14T15:44:32.316Z,31.15
2022-09-14T15:47:22.730Z,31.27
2022-09-14T15:50:13.316Z,32.85
2022-09-14T15:53:03.392Z,30.90
2022-09-14T15:55:54.434Z,32.67
2022-09-14T15:58:48.126Z,31.98
2022-09-14T16:01:38.615Z,36.42
2022-09-14T16:04:29.845Z,34.10
2022-09-14T16:07:00.892Z,35.28
2022-09-14T16:09:30.775Z,33.85
2022-09-14T16:12:01.982Z,35.30
2022-09-14T16:14:32.328Z,35.10
2022-09-14T16:17:02.933Z,35.50
2022-09-14T16:19:33.526Z,35.83
2022-09-14T16:22:03.325Z,37.25
2022-09-14T16:24:33.722Z,36.28
2022-09-14T16:27:03.760Z,40.47
2022-09-14T16:29:33.807Z,36.58
2022-09-14T16:32:03.531Z,37.58
2022-09-14T16:34:34.281Z,36.42
2022-09-14T16:37:04.019Z,36.70
2022-09-14T16:39:36.305Z,36.38
2022-09-14T16:44:36.511Z,37.65
2022-09-14T16:47:07.396Z,36.42
2022-09-14T16:49:39.358Z,36.28
2022-09-14T16:52:09.816Z,37.35
2022-09-14T16:54:40.885Z,36.87
2022-09-14T16:57:11.292Z,37.90
2022-09-14T16:59:41.550Z,36.95
2022-09-14T17:02:14.339Z,35.60
2022-09-14T17:04:44.748Z,36.50
2022-09-14T17:07:18.030Z,36.20
2022-09-14T17:09:47.940Z,37.50
2022-09-14T17:12:18.217Z,37.10
2022-09-14T17:14:49.129Z,37.33
2022-09-14T17:17:19.195Z,40.50
2022-09-14T17:19:49.249Z,39.88
2022-09-14T17:22:19.339Z,40.20
2022-09-14T17:24:50.123Z,36.17
2022-09-14T17:27:21.430Z,34.58
2022-09-14T17:29:52.439Z,32.57
2022-09-14T17:32:22.411Z,33.38
2022-09-14T17:34:53.605Z,33.42
2022-09-14T17:37:24.922Z,31.73
2022-09-14T17:39:55.052Z,31.05
2022-09-14T17:42:25.150Z,29.77
2022-09-14T17:44:55.437Z,27.70
2022-09-14T17:47:27.130Z,27.30
2022-09-14T17:49:57.065Z,28.70
2022-09-14T17:52:26.833Z,27.35
2022-09-14T17:54:57.458Z,25.95
2022-09-14T17:57:27.304Z,27.98
2022-09-14T17:59:57.194Z,26.70
2022-09-14T18:02:27.287Z,25.95
2022-09-14T18:04:57.115Z,26.92
2022-09-14T18:07:27.685Z,26.15
2022-09-14T18:09:57.841Z,26.05
2022-09-14T18:12:28.917Z,26.75
2022-09-14T18:14:58.672Z,25.90
2022-09-14T18:17:29.426Z,29.10
2022-09-14T18:20:00.056Z,31.17
2022-09-14T18:22:31.756Z,30.73
2022-09-14T18:25:01.629Z,29.23
2022-09-14T18:27:32.517Z,28.45
2022-09-14T18:30:04.869Z,29.88
2022-09-14T18:35:06.570Z,27.38
2022-09-14T18:37:36.875Z,27.83
2022-09-14T18:40:07.125Z,29.02
2022-09-14T18:42:38.018Z,29.13
2022-09-14T18:45:08.445Z,27.77
2022-09-14T18:47:38.256Z,28.05
2022-09-14T18:50:10.004Z,25.77
2022-09-14T18:52:39.778Z,25.83
2022-09-14T18:55:10.252Z,26.98
2022-09-14T18:57:41.081Z,27.00
2022-09-14T19:00:15.121Z,26.23
2022-09-14T19:02:55.577Z,23.90
2022-09-14T19:05:26.988Z,23.63
2022-09-14T19:07:56.982Z,25.30
2022-09-14T19:10:28.154Z,23.13
2022-09-14T19:12:58.122Z,24.20
2022-09-14T19:15:30.833Z,24.60
2022-09-14T19:18:03.346Z,23.30
2022-09-14T19:20:55.083Z,25.05
2022-09-14T19:23:24.458Z,24.15
2022-09-14T19:25:54.244Z,24.92
2022-09-14T19:28:24.312Z,23.27
2022-09-14T19:30:54.184Z,23.92
2022-09-14T19:33:25.349Z,27.15
2022-09-14T19:35:55.134Z,25.77
2022-09-14T19:38:25.957Z,23.23
2022-09-14T19:40:55.757Z,23.85
2022-09-14T19:43:25.638Z,22.80
2022-09-14T19:45:56.373Z,22.45
2022-09-14T19:48:26.665Z,24.50
2022-09-14T19:51:01.473Z,23.33
2022-09-14T19:53:33.075Z,23.77
2022-09-14T19:56:07.361Z,22.65
2022-09-14T19:58:42.334Z,22.52
2022-09-14T20:01:12.926Z,22.58
2022-09-14T20:03:43.209Z,23.48
2022-09-14T20:06:21.037Z,22.60
2022-09-14T20:08:53.489Z,21.55
2022-09-14T20:11:25.141Z,22.65
2022-09-14T20:16:35.961Z,21.25
2022-09-14T20:19:12.158Z,21.08
2022-09-14T20:21:43.367Z,22.02
2022-09-14T20:24:19.534Z,20.05
2022-09-14T20:26:51.863Z,22.30
2022-09-14T20:29:24.382Z,21.15
2022-09-14T20:31:54.943Z,20.35
2022-09-14T20:34:25.157Z,21.00
2022-09-14T20:36:55.920Z,22.13
2022-09-14T20:39:26.438Z,20.60
2022-09-14T20:41:56.504Z,21.77
2022-09-14T20:44:27.913Z,20.40
2022-09-14T20:46:58.171Z,20.90
2022-09-14T20:49:28.215Z,23.35
2022-09-14T20:51:58.787Z,19.88
2022-09-14T20:54:30.002Z,19.85
2022-09-14T20:57:04.082Z,21.00
2022-09-14T20:59:36.071Z,20.85
2022-09-14T21:02:06.004Z,20.77
2022-09-14T21:04:37.848Z,20.75
2022-09-14T21:07:07.641Z,22.05
2022-09-14T21:09:38.259Z,21.08
2022-09-14T21:12:12.848Z,21.00
2022-09-14T21:14:44.674Z,19.85
2022-09-14T21:17:14.374Z,19.27
2022-09-14T21:19:44.260Z,20.70
2022-09-14T21:22:15.078Z,20.35
2022-09-14T21:24:44.957Z,20.38
2022-09-14T21:27:15.055Z,21.25
2022-09-14T21:29:44.945Z,19.00
2022-09-14T21:32:15.856Z,20.85
2022-09-14T21:34:45.816Z,18.73
2022-09-14T21:37:15.616Z,20.67
2022-09-14T21:39:45.550Z,20.45
2022-09-14T21:42:15.393Z,19.70
2022-09-14T21:44:45.234Z,20.73
2022-09-14T21:47:15.752Z,19.95
2022-09-14T21:49:45.589Z,20.70
2022-09-14T21:52:16.039Z,19.52
2022-09-14T21:54:47.110Z,18.42
2022-09-14T21:57:17.910Z,19.58
2022-09-14T21:59:47.952Z,19.00
2022-09-14T22:02:18.756Z,19.95
2022-09-14T22:04:49.103Z,20.27
2022-09-14T22:07:19.973Z,17.85
2022-09-14T22:09:49.866Z,19.40
2022-09-14T22:12:21.631Z,18.88
2022-09-14T22:14:51.792Z,20.05
2022-09-14T22:17:22.195Z,19.23
2022-09-14T22:19:56.278Z,19.60
2022-09-14T22:22:27.250Z,18.38
2022-09-14T22:24:57.068Z,17.90
2022-09-14T22:27:26.942Z,18.52
2022-09-14T22:29:57.148Z,18.25
2022-09-14T22:32:26.795Z,19.35
2022-09-14T22:34:57.721Z,18.60
2022-09-14T22:37:27.380Z,19.02
2022-09-14T22:39:57.430Z,18.10
2022-09-14T22:42:29.279Z,18.85
2022-09-14T22:44:59.975Z,17.75
2022-09-14T22:47:31.341Z,18.23
2022-09-14T22:50:01.149Z,18.52
2022-09-14T22:52:30.701Z,18.00
2022-09-14T22:55:01.427Z,19.23
2022-09-14T22:57:31.333Z,18.77
2022-09-14T23:00:01.097Z,18.25
2022-09-14T23:02:30.976Z,18.20
2022-09-14T23:05:00.987Z,18.85
2022-09-14T23:07:33.420Z,17.02
2022-09-14T23:10:04.200Z,16.48
2022-09-14T23:12:34.694Z,17.75
2022-09-14T23:15:05.336Z,17.20
2022-09-14T23:17:35.425Z,17.13
2022-09-14T23:20:06.732Z,17.77
2022-09-14T23:22:36.524Z,18.00
2022-09-14T23:25:07.153Z,16.40
2022-09-14T23:27:36.968Z,16.55
2022-09-14T23:30:08.364Z,16.38
2022-09-14T23:32:38.283Z,16.58
2022-09-14T23:35:09.483Z,16.73
2022-09-14T23:37:40.004Z,15.90
2022-09-14T23:40:11.196Z,16.95
2022-09-14T23:42:41.240Z,17.05
2022-09-14T23:45:12.306Z,17.55
2022-09-14T23:47:42.195Z,16.38
2022-09-14T23:50:12.903Z,17.02
2022-09-14T23:52:42.686Z,16.15
2022-09-14T23:55:12.592Z,15.98
2022-09-14T23:57:43.236Z,16.92
